Terminal Aerodrome Forecast
Issued by NWS

Home | Current Version | Previous Version | Graphics & Text | Print | Product List | Glossary On
Versions: 1 2 3 4 5 6 7 8 9 10 11 12 13 14 15 16 17 18 19 20 21 22 23 24 25 26 27 28 29 30 31 32 33
771
FTUS43 KLOT 210300 AAA
TAFORD
TAF AMD
KORD 210300Z 2103/2206 32005KT P6SM BKN060
     FM210700 29006KT P6SM BKN060
     FM211400 29012G18KT P6SM SCT050
     FM220100 25008KT P6SM SCT050=

USA.gov is the U.S. government's official web portal to all federal, state and local government web resources and services.